Time;durP1;ratioP1;P1;durP2;ratioP2;P2;SDS_P1;SDS_P2;PMS_P1;PMS_P2;Temp;Humidity;BMP_temperature;BMP_pressure;BME280_temperature;BME280_humidity;BME280_pressure;Samples;Min_cycle;Max_cycle;Signal;HPM_P1;HPM_P2
2021/11/12 00:14:47;;;;;;;35.83;25.73;;;13.30;94.80;;;;;;5037639;28;20108;-57
2021/11/12 00:17:14;;;;;;;34.95;26.02;;;13.20;95.10;;;;;;5055148;28;20025;-57
2021/11/12 00:19:40;;;;;;;37.72;26.35;;;13.20;95.10;;;;;;5053586;28;20055;-57
2021/11/12 00:22:06;;;;;;;38.78;26.05;;;13.30;95.30;;;;;;5055330;28;20476;-51
2021/11/12 00:24:32;;;;;;;34.67;25.77;;;13.30;95.40;;;;;;5054140;28;20028;-56
2021/11/12 00:26:58;;;;;;;37.13;26.40;;;13.20;95.60;;;;;;5048123;28;20033;-54
2021/11/12 00:29:25;;;;;;;37.78;26.75;;;13.20;95.50;;;;;;5052555;28;20394;-55
2021/11/12 00:32:20;;;;;;;37.60;27.85;;;13.20;95.70;;;;;;5052526;28;20033;-57
2021/11/12 00:37:12;;;;;;;36.15;26.73;;;13.10;96.10;;;;;;5034494;28;20140;-54
2021/11/12 00:42:13;;;;;;;37.00;27.90;;;13.10;95.90;;;;;;5034810;28;20065;-54
2021/11/12 00:44:52;;;;;;;36.60;26.52;;;13.00;96.30;;;;;;5034606;28;20017;-51
2021/11/12 00:47:24;;;;;;;36.42;27.35;;;13.00;97.00;;;;;;5051237;28;20025;-50
2021/11/12 00:50:27;;;;;;;39.58;26.40;;;13.10;98.20;;;;;;5053629;28;20067;-55
2021/11/12 00:55:24;;;;;;;38.15;28.27;;;13.00;99.90;;;;;;5053520;28;20466;-52
2021/11/12 00:57:51;;;;;;;38.30;28.58;;;13.00;99.90;;;;;;5049994;28;20033;-55
2021/11/12 01:00:18;;;;;;;38.65;27.92;;;13.00;99.90;;;;;;5040950;28;20037;-53
2021/11/12 01:02:44;;;;;;;38.67;27.02;;;13.10;96.90;;;;;;5054448;28;20032;-52
2021/11/12 01:05:11;;;;;;;39.75;27.63;;;13.10;96.20;;;;;;5050885;28;20060;-51
2021/11/12 01:07:38;;;;;;;34.88;26.95;;;13.00;96.00;;;;;;5054278;28;20116;-53
2021/11/12 01:10:07;;;;;;;35.75;25.30;;;13.00;95.90;;;;;;5052912;28;20115;-51
2021/11/12 01:12:33;;;;;;;38.58;28.33;;;13.00;96.00;;;;;;5054093;28;20048;-52
2021/11/12 01:14:59;;;;;;;37.97;27.00;;;13.00;96.30;;;;;;5053750;28;20067;-52
2021/11/12 01:17:24;;;;;;;41.10;28.75;;;13.10;96.10;;;;;;5054126;28;20423;-52
2021/11/12 01:19:51;;;;;;;38.95;27.65;;;13.00;96.20;;;;;;5051544;28;20051;-50
2021/11/12 01:22:17;;;;;;;40.60;27.48;;;13.00;96.10;;;;;;5054074;28;20048;-54
2021/11/12 01:24:43;;;;;;;41.05;27.25;;;13.00;96.10;;;;;;5052648;28;20445;-50
2021/11/12 01:27:09;;;;;;;40.63;26.80;;;13.00;96.20;;;;;;5053833;28;20037;-50
2021/11/12 01:29:37;;;;;;;35.63;27.35;;;12.80;96.90;;;;;;5053056;28;20029;-52
2021/11/12 01:32:24;;;;;;;38.30;25.98;;;12.90;96.30;;;;;;5052512;28;20398;-52
2021/11/12 01:34:55;;;;;;;39.33;27.23;;;12.90;96.40;;;;;;5043874;28;20040;-55
2021/11/12 01:37:24;;;;;;;33.33;25.45;;;12.80;95.20;;;;;;5053812;28;20104;-55
2021/11/12 01:39:53;;;;;;;38.85;27.73;;;12.80;96.00;;;;;;5052489;28;20071;-53
2021/11/12 01:51:00;;;;;;;38.10;27.15;;;12.80;95.40;;;;;;5052744;28;20086;-52
2021/11/12 01:53:28;;;;;;;38.20;26.50;;;12.90;95.50;;;;;;5052761;28;20059;-56
2021/11/12 01:58:54;;;;;;;34.83;24.52;;;13.00;95.30;;;;;;5053268;28;20383;-55
2021/11/12 02:01:22;;;;;;;35.40;25.63;;;12.90;95.40;;;;;;5050572;28;20036;-53
2021/11/12 02:03:48;;;;;;;38.88;27.45;;;12.90;95.70;;;;;;5053034;28;20025;-51
2021/11/12 02:06:17;;;;;;;37.25;25.83;;;12.90;95.50;;;;;;5039603;28;20044;-53
2021/11/12 02:08:43;;;;;;;38.40;27.63;;;12.90;95.60;;;;;;5034791;28;20083;-52
2021/11/12 02:11:09;;;;;;;39.10;26.85;;;13.00;95.40;;;;;;5051807;28;20025;-56
2021/11/12 02:13:35;;;;;;;39.05;26.50;;;13.00;95.60;;;;;;5053254;28;20063;-52
2021/11/12 02:16:04;;;;;;;38.47;26.73;;;12.90;95.60;;;;;;5041103;28;20036;-53
2021/11/12 02:18:32;;;;;;;41.60;28.98;;;12.80;96.00;;;;;;5033576;28;20107;-52
2021/11/12 02:21:04;;;;;;;38.50;27.15;;;12.80;96.10;;;;;;5040654;28;20045;-53
2021/11/12 02:23:35;;;;;;;37.85;26.70;;;12.80;96.50;;;;;;5052947;28;20021;-51
2021/11/12 02:26:02;;;;;;;38.28;25.65;;;12.80;96.40;;;;;;5051850;28;20390;-53
2021/11/12 02:28:28;;;;;;;38.53;26.48;;;12.80;96.30;;;;;;5053069;28;20044;-52
2021/11/12 02:30:55;;;;;;;35.35;25.38;;;12.80;96.50;;;;;;5052073;28;20360;-56
2021/11/12 02:33:23;;;;;;;33.22;26.30;;;12.80;96.20;;;;;;5050893;28;20032;-54
2021/11/12 02:36:00;;;;;;;37.58;25.90;;;12.80;96.30;;;;;;5051865;28;20086;-53
2021/11/12 02:38:26;;;;;;;36.55;27.38;;;12.80;96.40;;;;;;5052896;28;20040;-53
2021/11/12 02:40:52;;;;;;;36.72;26.52;;;12.70;96.60;;;;;;5050798;28;20041;-54
2021/11/12 02:43:18;;;;;;;35.28;26.92;;;12.70;96.70;;;;;;5052877;28;20029;-52
2021/11/12 02:45:44;;;;;;;38.25;26.15;;;12.80;96.60;;;;;;5050769;28;20477;-52
2021/11/12 02:48:11;;;;;;;34.45;25.60;;;12.80;96.10;;;;;;5052784;28;20060;-52
2021/11/12 02:54:01;;;;;;;35.42;24.98;;;12.80;95.30;;;;;;5052245;28;20044;-55
2021/11/12 02:56:39;;;;;;;36.72;26.02;;;12.80;95.70;;;;;;5051558;28;20074;-51
2021/11/12 02:59:10;;;;;;;41.70;27.45;;;12.70;96.00;;;;;;5051490;28;20040;-51
2021/11/12 03:01:44;;;;;;;34.28;26.17;;;12.70;97.00;;;;;;5050617;28;20071;-54
2021/11/12 03:04:11;;;;;;;35.22;25.13;;;12.70;98.20;;;;;;5051192;28;20500;-50
2021/11/12 03:06:38;;;;;;;38.70;27.17;;;12.70;98.20;;;;;;5050693;28;20140;-53
2021/11/12 03:09:07;;;;;;;43.08;27.38;;;12.80;97.50;;;;;;5051352;28;20055;-50
2021/11/12 03:11:34;;;;;;;36.67;26.55;;;12.70;95.70;;;;;;5050844;28;20462;-51
2021/11/12 03:13:59;;;;;;;40.20;27.77;;;12.80;95.50;;;;;;5052445;28;20031;-53
2021/11/12 03:16:25;;;;;;;36.83;26.95;;;12.80;95.40;;;;;;5051610;28;20116;-51
2021/11/12 03:18:52;;;;;;;35.92;25.65;;;12.70;95.50;;;;;;5052588;28;20057;-51
2021/11/12 03:21:21;;;;;;;38.40;25.05;;;12.70;95.70;;;;;;5051218;28;20056;-51
2021/11/12 03:23:56;;;;;;;34.42;25.20;;;12.70;95.90;;;;;;5050987;28;20486;-54
2021/11/12 03:29:27;;;;;;;31.55;23.95;;;12.70;96.20;;;;;;5032905;28;20030;-50
2021/11/12 04:02:32;;;;;;;37.55;26.88;;;12.70;93.70;;;;;;5052131;28;20062;-55
2021/11/12 04:05:14;;;;;;;34.70;26.00;;;12.60;94.20;;;;;;5043198;28;20386;-53
2021/11/12 05:10:06;;;;;;;32.15;24.65;;;12.50;94.00;;;;;;5052333;28;20302;-52
2021/11/12 05:13:26;;;;;;;33.53;24.65;;;12.40;93.80;;;;;;5045294;28;20098;-51
2021/11/12 05:33:35;;;;;;;31.77;22.70;;;12.40;91.70;;;;;;5035285;28;20513;-51
2021/11/12 05:50:41;;;;;;;28.67;21.83;;;12.30;94.40;;;;;;5053110;28;20036;-56
2021/11/12 05:55:52;;;;;;;32.15;24.38;;;12.30;95.30;;;;;;5040133;28;20072;-56
2021/11/12 05:58:18;;;;;;;36.20;23.83;;;12.20;95.60;;;;;;5042998;28;20021;-55
2021/11/12 06:00:45;;;;;;;37.53;22.60;;;12.30;95.70;;;;;;5052399;28;20041;-52
2021/11/12 06:03:12;;;;;;;32.03;22.70;;;12.20;95.60;;;;;;5052180;28;20025;-53
2021/11/12 06:05:38;;;;;;;34.67;24.50;;;12.30;95.70;;;;;;5044868;28;20108;-52
2021/11/12 06:08:04;;;;;;;29.40;23.42;;;12.30;95.30;;;;;;5033071;28;20175;-57
2021/11/12 06:10:30;;;;;;;33.50;23.52;;;12.30;95.20;;;;;;5033496;28;20133;-56
2021/11/12 06:12:56;;;;;;;32.95;23.67;;;12.30;95.20;;;;;;5033140;28;20029;-55
2021/11/12 06:15:22;;;;;;;29.98;24.10;;;12.20;95.50;;;;;;5047042;28;20033;-54
2021/11/12 06:17:48;;;;;;;35.78;23.75;;;12.30;96.20;;;;;;5052914;28;20074;-55
2021/11/12 06:20:13;;;;;;;30.50;23.20;;;12.30;95.90;;;;;;5051972;28;20490;-54
2021/11/12 06:22:39;;;;;;;35.15;24.65;;;12.30;95.00;;;;;;5051804;28;20040;-55
2021/11/12 06:25:06;;;;;;;37.28;24.25;;;12.30;94.60;;;;;;5051701;28;20482;-57
2021/11/12 06:27:31;;;;;;;30.92;22.48;;;12.20;94.50;;;;;;5053215;28;20079;-54
2021/11/12 06:29:57;;;;;;;30.63;23.15;;;12.10;94.40;;;;;;5052161;28;20033;-53
2021/11/12 06:32:23;;;;;;;32.42;23.23;;;12.20;94.20;;;;;;5051753;28;20109;-53
2021/11/12 06:34:50;;;;;;;31.70;22.88;;;12.20;94.30;;;;;;5051696;28;20055;-55
2021/11/12 06:37:15;;;;;;;30.60;23.25;;;12.20;94.40;;;;;;5051406;28;20024;-54
2021/11/12 06:39:41;;;;;;;32.72;22.25;;;12.20;94.50;;;;;;5049613;28;20387;-58
2021/11/12 06:42:21;;;;;;;32.40;23.15;;;12.30;94.70;;;;;;5047902;28;20487;-54
2021/11/12 06:50:12;;;;;;;32.63;22.75;;;12.30;94.40;;;;;;5051828;28;20498;-54
2021/11/12 06:52:39;;;;;;;31.80;23.25;;;12.20;94.50;;;;;;5052645;28;20036;-56
2021/11/12 06:55:08;;;;;;;30.83;23.90;;;12.30;94.20;;;;;;5051285;28;20382;-55
2021/11/12 06:57:34;;;;;;;32.17;21.75;;;12.30;93.90;;;;;;5052736;28;20028;-55
2021/11/12 06:59:59;;;;;;;31.30;23.13;;;12.40;93.80;;;;;;5051052;28;20379;-56
2021/11/12 07:02:25;;;;;;;32.15;23.58;;;12.40;93.70;;;;;;5051009;28;20498;-52
2021/11/12 07:04:52;;;;;;;33.95;23.63;;;12.40;93.60;;;;;;5039255;28;20509;-54
2021/11/12 07:07:18;;;;;;;29.02;21.70;;;12.50;93.70;;;;;;5052727;28;20040;-55
2021/11/12 07:09:46;;;;;;;34.22;23.20;;;12.50;93.30;;;;;;5049639;28;20025;-55
2021/11/12 07:12:14;;;;;;;28.88;22.38;;;12.60;93.20;;;;;;5050243;28;20029;-55
2021/11/12 07:14:40;;;;;;;28.45;21.80;;;12.60;93.00;;;;;;5049410;28;20124;-55
2021/11/12 07:17:06;;;;;;;34.08;22.50;;;12.70;93.00;;;;;;5051995;28;20104;-54
2021/11/12 07:19:32;;;;;;;31.73;22.30;;;12.70;92.90;;;;;;5055219;28;20033;-55
2021/11/12 07:21:58;;;;;;;30.80;21.98;;;12.60;92.50;;;;;;5036496;28;20037;-56
2021/11/12 07:24:25;;;;;;;29.95;20.60;;;12.70;92.80;;;;;;5048963;28;20088;-52
2021/11/12 07:26:51;;;;;;;31.30;21.02;;;12.70;92.40;;;;;;5050842;28;20037;-57
2021/11/12 07:29:19;;;;;;;31.65;20.50;;;12.70;92.30;;;;;;5053285;28;20029;-52
2021/11/12 07:31:45;;;;;;;29.67;19.73;;;12.80;92.10;;;;;;5045979;28;20083;-56
2021/11/12 07:34:11;;;;;;;30.17;19.17;;;12.70;92.00;;;;;;5048193;28;20495;-58
2021/11/12 07:36:39;;;;;;;29.33;19.45;;;12.80;91.90;;;;;;5044501;28;20056;-55
2021/11/12 07:39:52;;;;;;;30.00;20.88;;;12.80;92.00;;;;;;5052781;28;20028;-55
2021/11/12 07:42:07;;;;;;;30.42;20.75;;;12.80;91.90;;;;;;5039209;28;20041;-56
2021/11/12 07:47:01;;;;;;;31.30;21.00;;;12.90;91.90;;;;;;5040429;28;20451;-55
2021/11/12 07:49:27;;;;;;;34.65;21.30;;;13.00;91.80;;;;;;5046508;28;20037;-55
2021/11/12 07:51:52;;;;;;;31.58;21.35;;;13.10;91.60;;;;;;5045484;28;20032;-54
2021/11/12 07:54:19;;;;;;;31.38;21.88;;;13.10;91.60;;;;;;5048731;28;20082;-53
2021/11/12 07:56:45;;;;;;;33.55;21.63;;;13.10;91.50;;;;;;5044356;28;20029;-54
2021/11/12 07:59:11;;;;;;;32.13;21.52;;;13.10;91.40;;;;;;5040116;28;20029;-55
2021/11/12 08:01:36;;;;;;;27.88;20.63;;;13.20;91.20;;;;;;5046789;28;20051;-53
2021/11/12 08:04:04;;;;;;;29.20;21.15;;;13.20;91.20;;;;;;5047778;28;20027;-57
2021/11/12 08:06:30;;;;;;;34.22;21.08;;;13.10;91.10;;;;;;5035536;28;20483;-55
2021/11/12 08:09:12;;;;;;;24.45;19.25;;;13.10;91.20;;;;;;5046946;28;20036;-54
2021/11/12 08:19:06;;;;;;;30.42;20.48;;;13.20;90.90;;;;;;5038112;28;20041;-55
2021/11/12 08:27:11;;;;;;;31.33;20.08;;;13.40;91.00;;;;;;5011387;28;20026;-55
2021/11/12 08:34:44;;;;;;;28.73;20.63;;;13.50;90.80;;;;;;5044421;28;20030;-56
2021/11/12 08:42:43;;;;;;;29.95;21.02;;;13.70;90.40;;;;;;5047202;28;20055;-53
2021/11/12 08:47:45;;;;;;;31.00;20.98;;;13.80;90.20;;;;;;5048072;28;20118;-54
2021/11/12 08:50:22;;;;;;;31.08;20.25;;;13.90;90.10;;;;;;5045410;28;20059;-53
2021/11/12 08:52:52;;;;;;;29.13;19.88;;;13.90;89.60;;;;;;5045363;28;20037;-56
2021/11/12 08:55:29;;;;;;;29.27;19.60;;;13.90;89.00;;;;;;5040062;28;20035;-50
2021/11/12 08:57:56;;;;;;;30.50;21.23;;;14.10;88.70;;;;;;5045208;28;20032;-53
2021/11/12 09:00:22;;;;;;;27.98;19.25;;;14.20;87.90;;;;;;5048723;28;20041;-55
2021/11/12 09:02:49;;;;;;;30.38;20.70;;;14.30;87.10;;;;;;5041779;28;20030;-51
2021/11/12 09:05:17;;;;;;;28.45;20.17;;;14.30;85.90;;;;;;5035826;28;20060;-50
2021/11/12 09:07:45;;;;;;;26.52;20.27;;;14.20;85.90;;;;;;5053392;28;20024;-50
2021/11/12 09:10:11;;;;;;;31.95;20.38;;;14.50;85.90;;;;;;5048867;28;20029;-55
2021/11/12 09:12:37;;;;;;;29.27;19.02;;;14.60;85.70;;;;;;5051810;28;20040;-51
2021/11/12 09:15:12;;;;;;;29.30;21.33;;;14.60;85.10;;;;;;5046992;28;20104;-51
2021/11/12 09:17:44;;;;;;;33.28;20.45;;;14.50;83.20;;;;;;5036747;28;20025;-54
2021/11/12 09:20:10;;;;;;;29.58;20.63;;;14.60;83.80;;;;;;5042317;28;20052;-51
2021/11/12 09:22:36;;;;;;;28.27;20.05;;;14.70;83.90;;;;;;5045925;28;20026;-52
2021/11/12 09:25:02;;;;;;;36.05;25.50;;;14.60;83.40;;;;;;5046885;28;20085;-52
2021/11/12 10:18:19;;;;;;;28.08;20.73;;;14.90;80.80;;;;;;5050283;28;20043;-55
2021/11/12 10:20:59;;;;;;;24.88;19.40;;;15.00;80.80;;;;;;5041120;28;20140;-57
2021/11/12 10:23:30;;;;;;;29.67;20.98;;;15.10;80.60;;;;;;5045503;28;20029;-55
2021/11/12 10:26:00;;;;;;;29.23;22.00;;;15.10;80.90;;;;;;5063359;28;20433;-56
2021/11/12 10:28:42;;;;;;;30.77;22.50;;;15.10;81.60;;;;;;5044124;28;20487;-56
2021/11/12 10:31:18;;;;;;;28.80;22.27;;;15.10;80.70;;;;;;5042207;28;20128;-56
2021/11/12 10:33:52;;;;;;;30.77;23.55;;;15.10;81.90;;;;;;5038964;28;20086;-55
2021/11/12 10:36:19;;;;;;;32.03;23.73;;;15.10;82.10;;;;;;5047736;28;20029;-55
2021/11/12 10:38:48;;;;;;;33.45;24.63;;;15.10;82.70;;;;;;5042942;28;20025;-55
2021/11/12 10:41:25;;;;;;;30.15;23.38;;;15.10;83.00;;;;;;5047665;28;20045;-56
2021/11/12 10:43:52;;;;;;;32.78;22.15;;;15.30;82.30;;;;;;5050345;28;20029;-55
2021/11/12 10:46:38;;;;;;;28.98;22.58;;;15.20;82.70;;;;;;5052369;28;20090;-55
2021/11/12 10:49:22;;;;;;;33.78;23.98;;;15.20;82.50;;;;;;5049120;28;20040;-55
2021/11/12 10:51:54;;;;;;;31.27;23.23;;;15.20;81.60;;;;;;5047008;28;20041;-54
2021/11/12 10:54:47;;;;;;;34.55;23.25;;;15.30;81.60;;;;;;5055553;28;20453;-55
2021/11/12 10:57:13;;;;;;;27.15;22.33;;;15.30;82.40;;;;;;5046863;28;20021;-56
2021/11/12 10:59:57;;;;;;;34.65;24.23;;;15.40;87.60;;;;;;5046341;28;20083;-54
2021/11/12 11:02:28;;;;;;;34.83;23.25;;;15.40;88.30;;;;;;5047619;28;20048;-50
2021/11/12 11:04:57;;;;;;;28.38;22.23;;;15.40;87.50;;;;;;5046323;28;20091;-56
2021/11/12 11:07:25;;;;;;;30.60;25.10;;;15.50;88.30;;;;;;5047575;28;20052;-52
2021/11/12 11:09:56;;;;;;;31.55;23.52;;;15.50;87.90;;;;;;5047733;28;20022;-53
2021/11/12 11:12:41;;;;;;;32.10;24.55;;;15.50;87.60;;;;;;5051313;28;20025;-51
2021/11/12 11:15:16;;;;;;;35.60;25.60;;;15.50;86.60;;;;;;5054727;28;20021;-51
2021/11/12 11:17:45;;;;;;;33.88;26.35;;;15.60;86.90;;;;;;5055632;28;20029;-55
2021/11/12 11:20:18;;;;;;;34.58;26.10;;;15.60;86.70;;;;;;5045193;28;20121;-52
2021/11/12 11:22:46;;;;;;;31.00;23.98;;;15.60;86.90;;;;;;5041803;28;20112;-53
2021/11/12 11:25:12;;;;;;;28.92;22.75;;;15.70;86.60;;;;;;5051653;28;20445;-55
2021/11/12 11:27:37;;;;;;;33.70;25.00;;;15.70;85.70;;;;;;5054144;28;20104;-54
2021/11/12 11:30:04;;;;;;;31.90;23.77;;;15.70;84.50;;;;;;5048998;28;20032;-53
2021/11/12 11:32:31;;;;;;;36.30;24.63;;;15.70;86.10;;;;;;5050739;28;20021;-55
2021/11/12 11:34:58;;;;;;;35.65;23.15;;;15.70;86.00;;;;;;5054348;28;20028;-53
2021/11/12 11:37:25;;;;;;;30.80;23.27;;;15.70;84.90;;;;;;5062377;28;20390;-51
2021/11/12 11:39:53;;;;;;;28.05;22.13;;;15.80;85.90;;;;;;5046033;28;20118;-51
2021/11/12 11:42:19;;;;;;;31.23;21.48;;;15.80;86.00;;;;;;5046793;28;20413;-52
2021/11/12 11:44:44;;;;;;;31.30;21.33;;;15.80;85.40;;;;;;5048289;28;20017;-52
2021/11/12 11:47:10;;;;;;;30.10;20.13;;;15.80;85.20;;;;;;5040518;28;20494;-53
2021/11/12 11:49:37;;;;;;;30.48;21.38;;;15.80;83.80;;;;;;5038185;28;20125;-53
2021/11/12 11:52:06;;;;;;;27.13;20.85;;;15.90;84.10;;;;;;5046525;28;20025;-55
2021/11/12 11:54:42;;;;;;;28.50;18.73;;;15.90;83.10;;;;;;5050693;28;20063;-53
2021/11/12 11:57:14;;;;;;;32.30;22.95;;;15.80;80.60;;;;;;5050445;28;20026;-53
2021/11/12 11:59:41;;;;;;;30.42;21.88;;;15.90;81.60;;;;;;5046974;28;20043;-56
2021/11/12 12:02:12;;;;;;;29.90;21.70;;;15.90;82.90;;;;;;5048039;28;20432;-57
2021/11/12 12:04:45;;;;;;;30.52;20.77;;;15.90;82.30;;;;;;5049541;28;20059;-54
2021/11/12 12:07:17;;;;;;;28.83;21.25;;;15.90;82.10;;;;;;5046594;28;20981;-56
2021/11/12 12:09:59;;;;;;;28.17;21.20;;;16.00;80.10;;;;;;5050810;28;20017;-54
2021/11/12 12:12:30;;;;;;;27.65;21.25;;;16.00;81.70;;;;;;5053968;28;20061;-55
2021/11/12 12:15:22;;;;;;;30.17;22.33;;;16.00;81.10;;;;;;5045518;28;20074;-55
2021/11/12 12:17:50;;;;;;;27.00;21.08;;;16.10;79.40;;;;;;5047872;28;20078;-54
2021/11/12 13:26:00;;;;;;;37.90;24.75;;;16.40;82.80;;;;;;5046708;28;20037;-56
2021/11/12 13:28:37;;;;;;;32.08;23.75;;;16.40;82.60;;;;;;5044602;28;20482;-57
2021/11/12 13:31:05;;;;;;;35.83;24.42;;;16.40;82.90;;;;;;5046589;28;20471;-53
2021/11/12 13:33:47;;;;;;;29.77;23.33;;;16.40;82.40;;;;;;5052818;28;20033;-54
2021/11/12 13:36:34;;;;;;;34.88;23.55;;;16.40;81.30;;;;;;5033601;28;20060;-50
2021/11/12 13:39:11;;;;;;;33.15;24.10;;;16.30;80.30;;;;;;5041830;28;20096;-52
2021/11/12 13:41:41;;;;;;;33.38;25.30;;;16.30;80.30;;;;;;5035046;28;20029;-51
2021/11/12 13:44:10;;;;;;;33.22;24.02;;;16.40;81.30;;;;;;5043523;28;20418;-52
2021/11/12 13:46:48;;;;;;;26.92;20.10;;;16.40;80.20;;;;;;5049756;28;20033;-51
2021/11/12 13:49:34;;;;;;;32.05;23.15;;;16.40;78.00;;;;;;5045895;28;20386;-52
2021/11/12 13:52:09;;;;;;;34.65;23.15;;;16.50;79.00;;;;;;5046815;28;20021;-52
2021/11/12 13:54:48;;;;;;;31.83;21.58;;;16.50;80.50;;;;;;5040516;28;20413;-52
2021/11/12 13:57:18;;;;;;;30.60;22.13;;;16.50;79.90;;;;;;5039751;28;20033;-54
2021/11/12 14:00:01;;;;;;;32.67;22.70;;;16.50;79.60;;;;;;5049115;28;20021;-51
2021/11/12 14:02:32;;;;;;;30.55;22.65;;;16.50;80.40;;;;;;5033691;28;20368;-55
2021/11/12 14:05:12;;;;;;;29.02;20.88;;;16.50;79.10;;;;;;5032570;28;20036;-54
2021/11/12 14:07:38;;;;;;;28.85;20.13;;;16.50;79.00;;;;;;5049522;28;20029;-50
2021/11/12 14:10:10;;;;;;;27.17;20.98;;;16.40;79.90;;;;;;5045687;28;20509;-53
2021/11/12 14:12:36;;;;;;;27.65;21.80;;;16.40;77.20;;;;;;5049749;28;20484;-55
2021/11/12 14:15:15;;;;;;;28.33;22.00;;;16.40;78.90;;;;;;5047698;28;20029;-53
2021/11/12 14:17:55;;;;;;;30.73;22.08;;;16.50;77.50;;;;;;5032790;28;20032;-50
2021/11/12 14:20:32;;;;;;;28.00;20.90;;;16.50;79.10;;;;;;5045808;28;20056;-52
2021/11/12 14:23:13;;;;;;;31.63;21.15;;;16.50;79.40;;;;;;5048974;28;20033;-52
2021/11/12 14:26:17;;;;;;;30.15;22.15;;;16.60;78.90;;;;;;5033464;28;20120;-53
2021/11/12 14:28:55;;;;;;;29.70;21.80;;;16.50;79.20;;;;;;5041362;28;20095;-57
2021/11/12 14:31:41;;;;;;;30.88;24.23;;;16.50;80.50;;;;;;5041794;28;20422;-54
2021/11/12 14:36:56;;;;;;;30.08;23.90;;;16.60;80.60;;;;;;5044696;28;20045;-53
2021/11/12 14:42:39;;;;;;;33.83;26.08;;;16.50;82.90;;;;;;5051079;28;20072;-57
2021/11/12 14:47:57;;;;;;;33.53;26.77;;;16.40;84.00;;;;;;5043911;28;20037;-57
2021/11/12 14:53:25;;;;;;;38.50;29.38;;;16.30;85.40;;;;;;5046119;28;20033;-55
2021/11/12 14:56:24;;;;;;;40.80;28.55;;;16.30;85.50;;;;;;5048956;28;20032;-52
2021/11/12 14:58:59;;;;;;;42.38;29.92;;;16.30;85.80;;;;;;5045079;28;20112;-57
2021/11/12 15:01:26;;;;;;;;;;;16.30;85.90;;;;;;5039476;28;20399;-57
2021/11/12 15:03:53;;;;;;;43.58;28.48;;;16.10;87.80;;;;;;5048674;28;19952;-52
2021/11/12 15:06:22;;;;;;;38.92;29.33;;;16.10;86.90;;;;;;5049511;28;20730;-54
2021/11/12 15:08:52;;;;;;;36.13;29.13;;;16.10;87.80;;;;;;5048596;28;20037;-53
2021/11/12 15:11:21;;;;;;;36.22;29.23;;;16.10;88.60;;;;;;5038317;28;20052;-56
2021/11/12 15:13:49;;;;;;;36.35;27.55;;;16.00;88.90;;;;;;5044593;28;20033;-55
2021/11/12 15:16:21;;;;;;;37.38;28.30;;;16.00;89.30;;;;;;5040371;28;20090;-54
2021/11/12 15:18:48;;;;;;;42.47;30.10;;;16.10;90.00;;;;;;5040095;28;20025;-57
2021/11/12 15:21:22;;;;;;;38.67;29.48;;;16.10;90.50;;;;;;5046427;28;20361;-55
2021/11/12 15:31:36;;;;;;;49.47;36.03;;;15.90;91.60;;;;;;5045776;28;20037;-56
2021/11/12 15:34:04;;;;;;;48.20;36.78;;;15.70;92.30;;;;;;5032188;28;20064;-53
2021/11/12 15:36:33;;;;;;;56.92;39.63;;;15.70;92.80;;;;;;5038483;28;20021;-57
2021/11/12 15:39:08;;;;;;;56.50;39.85;;;15.60;93.40;;;;;;5038149;28;20060;-58
2021/11/12 15:42:12;;;;;;;57.42;39.63;;;15.50;93.70;;;;;;5048407;28;20036;-53
2021/11/12 15:44:38;;;;;;;57.08;40.35;;;15.40;94.30;;;;;;5053107;28;20437;-55
2021/11/12 15:47:09;;;;;;;51.63;37.83;;;15.30;94.10;;;;;;5060519;28;20526;-55
2021/11/12 15:49:38;;;;;;;58.35;40.45;;;15.20;94.40;;;;;;5046217;28;20041;-54
2021/11/12 16:00:33;;;;;;;51.17;38.88;;;14.90;95.50;;;;;;5019506;28;20029;-56
2021/11/12 16:08:24;;;;;;;60.67;41.17;;;14.60;97.30;;;;;;5049934;28;20029;-55
2021/11/12 16:13:46;;;;;;;56.95;39.78;;;14.60;96.00;;;;;;5052348;28;20048;-55
2021/11/12 16:21:39;;;;;;;55.70;40.20;;;14.40;96.10;;;;;;5046425;28;20068;-54
2021/11/12 16:26:55;;;;;;;59.85;40.67;;;14.50;96.10;;;;;;5051959;28;20036;-55
2021/11/12 16:34:54;;;;;;;59.75;39.75;;;14.20;97.30;;;;;;5050316;28;20033;-57
2021/11/12 16:37:21;;;;;;;48.50;36.72;;;14.20;97.30;;;;;;5046866;28;20035;-54
2021/11/12 16:39:52;;;;;;;56.05;39.17;;;14.10;97.70;;;;;;5042953;28;20009;-57
2021/11/12 16:47:33;;;;;;;57.10;40.30;;;14.00;98.70;;;;;;5041721;28;20037;-54
2021/11/12 16:52:44;;;;;;;62.45;42.03;;;14.10;99.40;;;;;;5042873;28;22084;-58
2021/11/12 16:55:48;;;;;;;62.92;43.08;;;14.20;98.30;;;;;;5049763;28;20043;-55
2021/11/12 17:08:28;;;;;;;61.08;42.67;;;14.00;97.30;;;;;;5046231;28;20020;-55
2021/11/12 17:22:12;;;;;;;61.53;43.38;;;14.00;98.00;;;;;;5048144;28;20140;-57
2021/11/12 17:48:57;;;;;;;58.88;40.58;;;13.80;99.00;;;;;;5039438;28;20502;-56
2021/11/12 18:01:35;;;;;;;60.60;40.80;;;13.70;98.70;;;;;;5044285;28;20495;-57
2021/11/12 18:24:37;;;;;;;64.53;44.50;;;13.60;99.60;;;;;;5007973;28;20077;-56
2021/11/12 21:48:48;;;;;;;61.30;42.65;;;12.20;92.40;;;;;;5048436;28;20130;-54
2021/11/12 21:51:23;;;;;;;60.88;40.30;;;12.20;93.50;;;;;;5038719;28;20036;-53
2021/11/12 21:53:51;;;;;;;60.85;43.15;;;12.20;94.40;;;;;;5048911;28;20039;-56
2021/11/12 21:56:17;;;;;;;54.05;39.28;;;12.20;94.70;;;;;;5052514;28;20040;-55
2021/11/12 21:58:42;;;;;;;58.25;41.83;;;12.40;95.10;;;;;;5041078;28;20037;-56
2021/11/12 22:01:09;;;;;;;60.38;42.58;;;12.40;95.20;;;;;;5046221;28;20487;-56
2021/11/12 22:03:36;;;;;;;59.95;42.95;;;12.40;95.00;;;;;;5046539;28;20483;-55
2021/11/12 22:06:02;;;;;;;62.30;43.30;;;12.40;94.80;;;;;;5033644;28;20036;-53
2021/11/12 22:08:29;;;;;;;64.75;43.88;;;12.50;95.00;;;;;;5063069;28;20025;-57
2021/11/12 22:11:00;;;;;;;68.72;44.03;;;12.60;94.60;;;;;;5040558;28;20029;-54
2021/11/12 22:13:26;;;;;;;72.13;44.60;;;12.60;94.30;;;;;;5038144;28;20032;-55
2021/11/12 22:15:52;;;;;;;75.25;46.20;;;12.60;94.10;;;;;;5048525;28;20391;-54
2021/11/12 22:18:18;;;;;;;73.10;42.38;;;12.30;94.30;;;;;;5066800;28;20475;-55
2021/11/12 22:20:44;;;;;;;76.60;46.83;;;12.40;94.40;;;;;;5048638;28;20037;-54
2021/11/12 22:23:10;;;;;;;72.22;45.47;;;12.30;94.30;;;;;;5038385;28;20659;-53
2021/11/12 22:25:36;;;;;;;70.88;44.22;;;12.40;94.30;;;;;;5045474;28;20029;-54
2021/11/12 22:28:02;;;;;;;76.78;46.00;;;12.20;94.60;;;;;;5050291;28;20028;-55
2021/11/12 22:30:28;;;;;;;78.85;46.95;;;12.20;94.60;;;;;;5042739;28;20077;-58
2021/11/12 22:32:54;;;;;;;77.47;46.28;;;12.30;94.70;;;;;;5043012;28;20536;-55
2021/11/12 22:38:42;;;;;;;70.30;42.95;;;12.20;94.80;;;;;;5044471;28;20075;-57
2021/11/12 22:41:08;;;;;;;72.07;44.35;;;12.20;95.00;;;;;;5038637;28;20037;-56
2021/11/12 22:43:35;;;;;;;67.18;41.72;;;12.20;95.30;;;;;;5042347;28;20382;-55
2021/11/12 22:46:03;;;;;;;65.82;42.22;;;12.30;95.70;;;;;;5048367;28;20116;-55
2021/11/12 22:48:28;;;;;;;69.53;41.92;;;12.30;96.10;;;;;;5044412;28;20028;-56
2021/11/12 22:50:54;;;;;;;64.30;41.60;;;12.40;96.30;;;;;;5042472;28;20120;-55
2021/11/12 22:53:20;;;;;;;64.80;40.92;;;12.20;96.70;;;;;;5047194;28;20111;-57
2021/11/12 22:55:46;;;;;;;62.63;41.08;;;12.30;97.00;;;;;;5056167;28;20036;-52
2021/11/12 22:58:12;;;;;;;57.30;39.17;;;12.40;96.90;;;;;;5054233;28;20485;-54
2021/11/12 23:00:37;;;;;;;58.38;39.17;;;12.30;96.70;;;;;;5047695;28;20049;-52
2021/11/12 23:03:05;;;;;;;56.88;38.58;;;12.30;96.90;;;;;;5044325;28;20028;-52
2021/11/12 23:05:32;;;;;;;61.10;39.47;;;12.40;97.10;;;;;;5047916;28;20074;-55
2021/11/12 23:07:57;;;;;;;58.60;37.28;;;12.30;97.40;;;;;;5052232;28;20111;-54
2021/11/12 23:10:23;;;;;;;56.72;38.45;;;12.50;97.40;;;;;;5048992;28;20562;-55
2021/11/12 23:12:49;;;;;;;60.08;38.03;;;12.50;97.10;;;;;;5054013;28;20057;-55
2021/11/12 23:15:16;;;;;;;51.38;35.58;;;12.30;97.70;;;;;;5052414;28;20099;-53
2021/11/12 23:17:42;;;;;;;55.88;37.20;;;12.20;98.10;;;;;;5063025;28;20041;-53
2021/11/12 23:20:09;;;;;;;61.75;38.85;;;12.20;98.40;;;;;;5048500;28;20147;-52
2021/11/12 23:22:35;;;;;;;62.30;38.85;;;12.20;98.00;;;;;;5047389;28;20043;-54
2021/11/12 23:25:00;;;;;;;57.53;38.65;;;12.30;98.50;;;;;;5044291;28;20056;-56
2021/11/12 23:27:26;;;;;;;62.58;39.45;;;12.40;98.10;;;;;;5040502;28;20442;-51
2021/11/12 23:29:52;;;;;;;59.65;38.60;;;12.40;98.20;;;;;;5043450;28;20029;-53
2021/11/12 23:32:18;;;;;;;63.78;38.92;;;12.40;98.10;;;;;;5047077;28;20044;-54
2021/11/12 23:34:44;;;;;;;59.38;37.33;;;12.40;98.60;;;;;;5044416;28;20100;-54
2021/11/12 23:37:09;;;;;;;58.22;37.75;;;12.50;98.40;;;;;;5049484;28;20508;-56
2021/11/12 23:39:35;;;;;;;59.00;39.47;;;12.50;98.60;;;;;;5044546;28;20067;-52